Time;durP1;ratioP1;P1;durP2;ratioP2;P2;SDS_P1;SDS_P2;PMS_P1;PMS_P2;Temp;Humidity;BMP_temperature;BMP_pressure;BME280_temperature;BME280_humidity;BME280_pressure;Samples;Min_cycle;Max_cycle;Signal;HPM_P1;HPM_P2
2021/01/12 00:02:18;;;;;;;13.93;8.80;;;;;;;4.86;100.00;96786.16;5023909;28;20028;-69
2021/01/12 00:04:45;;;;;;;16.80;10.05;;;;;;;5.15;100.00;96813.44;5041115;28;20041;-69
2021/01/12 00:07:11;;;;;;;18.35;10.57;;;;;;;5.52;100.00;96883.72;5025369;28;20021;-69
2021/01/12 00:09:37;;;;;;;15.90;7.70;;;;;;;5.51;100.00;96882.13;5025883;28;20577;-70
2021/01/12 00:12:03;;;;;;;14.40;7.18;;;;;;;5.54;100.00;96897.94;5007628;28;20128;-69
2021/01/12 00:14:31;;;;;;;12.95;6.28;;;;;;;5.21;100.00;96856.00;5026108;28;20500;-69
2021/01/12 00:16:58;;;;;;;9.10;4.70;;;;;;;5.42;100.00;96895.16;5007270;28;20461;-69
2021/01/12 00:19:24;;;;;;;6.60;3.78;;;;;;;5.66;100.00;96911.66;5007967;28;20475;-68
2021/01/12 00:21:49;;;;;;;8.57;4.47;;;;;;;5.48;100.00;96893.81;5025570;28;20037;-68
2021/01/12 00:24:14;;;;;;;5.78;4.18;;;;;;;5.71;100.00;96916.94;5024201;28;20489;-69
2021/01/12 00:26:40;;;;;;;8.48;4.40;;;;;;;5.77;100.00;96901.84;5006321;28;21102;-69
2021/01/12 00:29:06;;;;;;;6.97;4.10;;;;;;;3.41;100.00;96530.88;5007580;28;20045;-68
2021/01/12 00:31:32;;;;;;;7.88;4.00;;;;;;;5.74;100.00;96891.53;5006931;28;20094;-68
2021/01/12 00:33:57;;;;;;;10.63;4.75;;;;;;;5.74;100.00;96894.28;5025235;28;20029;-69
2021/01/12 00:36:22;;;;;;;8.20;4.53;;;;;;;5.44;100.00;96843.44;5025070;28;20072;-68
2021/01/12 00:38:48;;;;;;;8.70;3.97;;;;;;;5.76;100.00;96883.75;5025787;28;20057;-68
2021/01/12 00:41:13;;;;;;;7.22;4.25;;;;;;;5.61;100.00;96856.97;5024251;28;20056;-67
2021/01/12 00:43:39;;;;;;;7.82;4.00;;;;;;;5.94;100.00;96879.66;5023863;28;20025;-69
2021/01/12 00:46:08;;;;;;;12.70;5.90;;;;;;;5.29;100.00;96769.97;5021372;28;20037;-69
2021/01/12 00:48:33;;;;;;;17.77;8.75;;;;;;;5.97;100.00;96878.97;5021968;28;20408;-69
2021/01/12 00:50:59;;;;;;;30.60;14.85;;;;;;;5.99;100.00;96866.47;5006280;28;20103;-70
2021/01/12 00:53:24;;;;;;;23.20;9.23;;;;;;;5.43;100.00;96770.44;5007014;28;20492;-68
2021/01/12 00:55:50;;;;;;;19.30;9.18;;;;;;;5.95;100.00;96864.75;5024736;28;20061;-68
2021/01/12 00:58:15;;;;;;;9.55;4.80;;;;;;;5.43;100.00;96792.41;5024706;28;20103;-68
2021/01/12 01:00:40;;;;;;;6.65;3.97;;;;;;;5.40;100.00;96777.41;5006610;28;20037;-68
2021/01/12 01:03:06;;;;;;;7.50;4.18;;;;;;;5.61;100.00;96800.06;5023945;28;20428;-68
2021/01/12 01:05:31;;;;;;;6.32;3.42;;;;;;;5.43;100.00;96830.84;5006587;28;20049;-68
2021/01/12 01:07:57;;;;;;;7.97;4.35;;;;;;;5.15;100.00;96851.88;5025153;28;20032;-67
2021/01/12 01:10:22;;;;;;;9.50;5.18;;;;;;;5.19;100.00;96861.00;5022964;28;20038;-69
2021/01/12 01:12:48;;;;;;;11.80;5.65;;;;;;;5.20;100.00;96857.16;5024985;28;20025;-68
2021/01/12 01:15:13;;;;;;;12.00;5.78;;;;;;;5.08;100.00;96829.66;5024344;28;20029;-67
2021/01/12 01:17:39;;;;;;;10.80;5.25;;;;;;;5.32;100.00;96829.69;5024963;28;20033;-67
2021/01/12 01:20:05;;;;;;;16.52;7.07;;;;;;;2.74;100.00;96363.53;5017591;28;20045;-67
2021/01/12 01:22:30;;;;;;;12.32;6.50;;;;;;;5.31;100.00;96751.22;5003252;28;20424;-68
2021/01/12 01:24:56;;;;;;;13.45;6.38;;;;;;;4.65;100.00;96673.75;5003485;28;20044;-67
2021/01/12 01:27:21;;;;;;;7.38;4.13;;;;;;;5.28;100.00;96795.84;5004748;28;20084;-68
2021/01/12 01:29:47;;;;;;;9.65;5.28;;;;;;;4.82;100.00;96752.31;5005409;28;20038;-67
2021/01/12 01:32:12;;;;;;;10.20;5.85;;;;;;;5.15;100.00;96780.50;5004704;28;20092;-68
2021/01/12 01:34:38;;;;;;;19.35;9.80;;;;;;;5.30;100.00;96807.25;5004904;28;20474;-67
2021/01/12 01:37:04;;;;;;;19.92;8.30;;;;;;;5.35;100.00;96804.28;5003100;28;20036;-67
2021/01/12 01:39:29;;;;;;;18.95;7.75;;;;;;;5.25;100.00;96807.50;4986653;28;20044;-68
2021/01/12 01:41:59;;;;;;;18.60;7.55;;;;;;;4.99;100.00;96754.84;5004308;28;20034;-68
2021/01/12 01:44:25;;;;;;;15.57;6.40;;;;;;;5.41;100.00;96814.72;5004911;28;20044;-67
2021/01/12 01:46:50;;;;;;;10.73;5.05;;;;;;;4.99;100.00;96750.16;4986627;28;20026;-68
2021/01/12 01:49:16;;;;;;;10.43;4.97;;;;;;;5.23;100.00;96743.88;5005273;28;21108;-67
2021/01/12 01:51:42;;;;;;;9.80;5.55;;;;;;;5.38;100.00;96800.84;5004422;28;20065;-67
2021/01/12 01:54:11;;;;;;;13.15;5.18;;;;;;;4.55;100.00;96729.84;5004912;28;20033;-68
2021/01/12 01:56:36;;;;;;;9.23;4.30;;;;;;;5.27;100.00;96810.69;5004055;28;20089;-68
2021/01/12 01:59:02;;;;;;;10.00;5.28;;;;;;;5.31;100.00;96800.63;5004862;28;20077;-69
2021/01/12 02:01:28;;;;;;;9.00;4.50;;;;;;;5.36;100.00;96803.16;5004241;28;20041;-68
2021/01/12 02:03:56;;;;;;;10.55;5.28;;;;;;;5.44;100.00;96810.47;5005011;28;20022;-67
2021/01/12 02:06:34;;;;;;;13.90;6.22;;;;;;;5.49;100.00;96800.06;5004134;28;20029;-68
2021/01/12 02:08:59;;;;;;;20.00;9.55;;;;;;;5.47;100.00;96796.06;5022346;28;20068;-68
2021/01/12 02:11:27;;;;;;;16.65;8.20;;;;;;;5.20;100.00;96722.63;5023942;28;20069;-67
2021/01/12 02:14:03;;;;;;;18.15;8.95;;;;;;;5.57;100.00;96771.69;5039200;28;20037;-67
2021/01/12 02:16:30;;;;;;;14.70;7.78;;;;;;;3.07;100.00;96367.03;5023739;28;20052;-67
2021/01/12 02:18:57;;;;;;;34.05;15.75;;;;;;;5.75;100.00;96755.75;5024209;28;20037;-68
2021/01/12 02:21:24;;;;;;;11.57;6.93;;;;;;;5.73;100.00;96774.53;5021751;28;20120;-67
2021/01/12 02:23:54;;;;;;;15.20;9.07;;;;;;;4.72;100.00;96601.88;5024300;28;21391;-67
2021/01/12 02:26:21;;;;;;;18.75;10.70;;;;;;;5.81;100.00;96760.66;5023507;28;20026;-67
2021/01/12 02:28:46;;;;;;;23.15;11.82;;;;;;;5.80;100.00;96752.78;5038925;28;20531;-67
2021/01/12 02:31:12;;;;;;;26.45;16.83;;;;;;;5.45;100.00;96685.75;5023840;28;20098;-67
2021/01/12 02:33:38;;;;;;;21.35;11.88;;;;;;;5.84;100.00;96737.22;5022179;28;20386;-68
2021/01/12 02:36:08;;;;;;;15.98;9.23;;;;;;;5.44;100.00;96695.13;5022148;28;20049;-68
2021/01/12 02:38:35;;;;;;;25.83;11.93;;;;;;;5.94;100.00;96744.97;5039192;28;20080;-68
2021/01/12 02:41:17;;;;;;;49.47;22.45;;;;;;;5.68;100.00;96739.84;5021960;28;20037;-68
2021/01/12 02:43:44;;;;;;;31.48;13.82;;;;;;;5.74;100.00;96715.66;5023749;28;20037;-67
2021/01/12 02:46:10;;;;;;;29.13;14.45;;;;;;;5.82;100.00;96720.25;5023254;28;20033;-68
2021/01/12 02:48:36;;;;;;;40.72;19.25;;;;;;;5.49;100.00;96679.22;5023675;28;20017;-68
2021/01/12 02:51:03;;;;;;;28.20;13.93;;;;;;;5.46;100.00;96681.84;5025677;28;20037;-68
2021/01/12 02:53:28;;;;;;;31.65;15.10;;;;;;;5.45;100.00;96647.28;5027507;28;20033;-68
2021/01/12 02:55:53;;;;;;;13.88;7.32;;;;;;;5.60;100.00;96665.78;5025317;28;20034;-68
2021/01/12 02:58:19;;;;;;;31.17;16.65;;;;;;;5.85;100.00;96717.63;5027169;28;20049;-68
2021/01/12 03:00:45;;;;;;;14.27;7.05;;;;;;;5.92;100.00;96722.53;5027156;28;20044;-65
2021/01/12 03:03:11;;;;;;;15.98;8.90;;;;;;;5.59;100.00;96697.16;5026988;28;20033;-67
2021/01/12 03:05:36;;;;;;;24.30;13.70;;;;;;;5.89;100.00;96728.72;5025201;28;20037;-68
2021/01/12 03:08:02;;;;;;;9.52;4.40;;;;;;;5.49;100.00;96714.09;5025600;28;20045;-67
2021/01/12 03:10:27;;;;;;;13.32;3.90;;;;;;;5.26;100.00;96715.75;5026814;28;20072;-66
2021/01/12 03:12:52;;;;;;;12.77;4.57;;;;;;;5.04;100.00;96729.94;5027046;28;20397;-66
2021/01/12 03:15:18;;;;;;;11.95;5.35;;;;;;;4.54;100.00;96629.53;5026845;28;20502;-66
2021/01/12 03:17:43;;;;;;;6.80;3.22;;;;;;;5.00;100.00;96690.56;5027138;28;20032;-66
2021/01/12 03:20:09;;;;;;;6.72;3.30;;;;;;;5.38;100.00;96730.25;5026672;28;20041;-67
2021/01/12 03:22:35;;;;;;;9.25;3.60;;;;;;;5.34;100.00;96709.34;5008840;28;20129;-66
2021/01/12 03:25:00;;;;;;;6.60;3.47;;;;;;;5.38;100.00;96716.53;5027169;28;20128;-66
2021/01/12 03:27:26;;;;;;;9.60;4.10;;;;;;;5.37;100.00;96701.22;5008424;28;20042;-67
2021/01/12 03:29:51;;;;;;;9.50;4.22;;;;;;;5.33;100.00;96691.25;5026698;28;20539;-67
2021/01/12 03:32:16;;;;;;;9.63;5.57;;;;;;;5.43;100.00;96707.25;5007634;28;20041;-67
2021/01/12 03:34:42;;;;;;;6.85;3.70;;;;;;;5.46;100.00;96714.81;5026972;28;20033;-67
2021/01/12 03:37:07;;;;;;;8.68;4.00;;;;;;;5.44;100.00;96717.91;5026090;28;20480;-67
2021/01/12 03:39:33;;;;;;;15.57;6.22;;;;;;;5.48;100.00;96713.34;5026400;28;20045;-66
2021/01/12 03:41:58;;;;;;;8.45;4.38;;;;;;;4.98;100.00;96632.50;5026042;28;20255;-66
2021/01/12 03:44:24;;;;;;;13.52;6.57;;;;;;;5.51;100.00;96695.34;5008119;28;20128;-67
2021/01/12 03:46:50;;;;;;;9.52;4.60;;;;;;;4.75;100.00;96566.31;5008023;28;20411;-67
2021/01/12 03:49:15;;;;;;;7.38;4.25;;;;;;;5.67;100.00;96688.00;5026144;28;20037;-66
2021/01/12 03:51:41;;;;;;;10.20;5.13;;;;;;;5.63;100.00;96704.34;5008046;28;20263;-68
2021/01/12 03:54:06;;;;;;;12.95;7.43;;;;;;;5.50;100.00;96743.19;5026247;28;20033;-67
2021/01/12 03:56:31;;;;;;;20.27;10.73;;;;;;;5.48;100.00;96707.03;5025714;28;20049;-68
2021/01/12 03:58:57;;;;;;;70.80;26.55;;;;;;;5.71;100.00;96732.84;5008145;28;20424;-67
2021/01/12 04:01:23;;;;;;;101.18;36.17;;;;;;;4.88;100.00;96586.31;5025120;28;20047;-67
2021/01/12 04:03:48;;;;;;;69.18;26.83;;;;;;;5.51;100.00;96700.84;5007983;28;20088;-67
2021/01/12 04:06:17;;;;;;;32.70;15.10;;;;;;;5.61;100.00;96738.84;5007585;28;20041;-68
2021/01/12 04:08:46;;;;;;;36.15;16.33;;;;;;;5.68;100.00;96763.75;5025873;28;20112;-66
2021/01/12 04:11:14;;;;;;;34.80;15.30;;;;;;;5.70;100.00;96775.22;5025559;28;20049;-67
2021/01/12 04:13:40;;;;;;;43.05;17.75;;;;;;;4.91;100.00;96621.28;5026013;28;20040;-67
2021/01/12 04:16:07;;;;;;;43.28;20.85;;;;;;;2.73;100.00;96249.84;5025796;28;20120;-67
2021/01/12 04:18:32;;;;;;;31.17;14.35;;;;;;;5.05;100.00;96629.97;5025772;28;20114;-67
2021/01/12 04:20:58;;;;;;;25.70;14.15;;;;;;;5.91;100.00;96759.41;5023590;28;20087;-68
2021/01/12 04:23:23;;;;;;;22.45;11.32;;;;;;;5.98;100.00;96756.88;5024242;28;20037;-68
2021/01/12 04:25:49;;;;;;;68.90;29.15;;;;;;;5.39;100.00;96703.63;5024296;28;20042;-68
2021/01/12 04:28:14;;;;;;;84.70;34.30;;;;;;;4.81;100.00;96594.31;5024257;28;20128;-67
2021/01/12 04:30:40;;;;;;;73.18;32.00;;;;;;;5.84;100.00;96748.19;5025470;28;20400;-67
2021/01/12 04:33:05;;;;;;;35.00;17.77;;;;;;;5.73;100.00;96719.56;5025899;28;20092;-67
2021/01/12 04:35:31;;;;;;;27.35;13.00;;;;;;;5.92;100.00;96728.03;5025251;28;20040;-67
2021/01/12 04:37:56;;;;;;;44.08;18.42;;;;;;;5.64;100.00;96714.19;5025757;28;20504;-67
2021/01/12 04:40:22;;;;;;;43.95;19.63;;;;;;;5.39;100.00;96720.88;5023464;28;20516;-68
2021/01/12 04:42:47;;;;;;;33.67;14.63;;;;;;;5.25;100.00;96709.44;5025428;28;20153;-67
2021/01/12 04:45:13;;;;;;;30.98;14.75;;;;;;;5.49;100.00;96709.44;5010099;28;20546;-68
2021/01/12 04:47:38;;;;;;;24.88;10.38;;;;;;;5.55;100.00;96712.72;5023731;28;20509;-67
2021/01/12 04:50:05;;;;;;;12.10;5.22;;;;;;;5.39;100.00;96703.63;5023600;28;20025;-68
2021/01/12 04:52:45;;;;;;;8.85;5.00;;;;;;;5.51;100.00;96712.63;5024881;28;20045;-68
2021/01/12 04:55:12;;;;;;;6.88;3.70;;;;;;;5.48;100.00;96693.28;5024729;28;20104;-67
2021/01/12 04:57:37;;;;;;;7.45;3.45;;;;;;;5.43;100.00;96682.53;5024735;28;20072;-68
2021/01/12 05:00:26;;;;;;;6.45;3.70;;;;;;;5.45;100.00;96669.28;5005239;28;20488;-69
2021/01/12 05:03:10;;;;;;;6.72;3.17;;;;;;;5.54;100.00;96667.19;5003799;28;20033;-67
2021/01/12 05:05:37;;;;;;;11.55;3.45;;;;;;;5.43;100.00;96664.13;4986937;28;20038;-68
2021/01/12 05:08:09;;;;;;;9.85;3.47;;;;;;;5.19;100.00;96633.16;4991290;28;20093;-67
2021/01/12 05:10:39;;;;;;;12.80;3.83;;;;;;;5.34;100.00;96673.63;5004912;28;20053;-67
2021/01/12 05:13:06;;;;;;;11.10;4.03;;;;;;;4.31;100.00;96494.03;5004786;28;20042;-67
2021/01/12 05:15:32;;;;;;;7.78;3.70;;;;;;;5.38;100.00;96663.53;5004694;28;20034;-66
2021/01/12 05:18:00;;;;;;;10.15;4.57;;;;;;;5.09;100.00;96637.16;5005200;28;20052;-68
2021/01/12 05:20:26;;;;;;;17.65;8.80;;;;;;;4.57;100.00;96620.63;5004827;28;20949;-69
2021/01/12 05:23:07;;;;;;;9.30;4.93;;;;;;;4.61;100.00;96569.44;5004708;28;20076;-68
2021/01/12 05:25:36;;;;;;;9.45;4.05;;;;;;;4.78;100.00;96595.81;5004714;28;20420;-67
2021/01/12 05:28:03;;;;;;;9.57;4.78;;;;;;;5.18;100.00;96648.03;5004962;28;20440;-68
2021/01/12 05:30:29;;;;;;;19.30;11.98;;;;;;;5.33;100.00;96650.06;4986698;28;20557;-69
2021/01/12 05:32:56;;;;;;;223.63;86.03;;;;;;;5.41;100.00;96638.94;5004826;28;20042;-69
2021/01/12 05:35:25;;;;;;;171.90;73.88;;;;;;;5.34;100.00;96624.22;5004722;28;20415;-69
2021/01/12 05:38:20;;;;;;;72.13;36.58;;;;;;;5.32;100.00;96619.06;5005036;28;20034;-69
2021/01/12 05:40:46;;;;;;;42.67;22.38;;;;;;;5.13;100.00;96596.09;5002002;28;20192;-69
2021/01/12 05:43:13;;;;;;;51.80;29.00;;;;;;;5.51;100.00;96645.91;5004334;28;20649;-68
2021/01/12 05:45:40;;;;;;;88.28;40.70;;;;;;;5.55;100.00;96630.31;4986319;28;20037;-68
2021/01/12 05:48:07;;;;;;;88.38;37.45;;;;;;;5.55;100.00;96628.38;5004590;28;20038;-67
2021/01/12 05:50:33;;;;;;;62.67;29.95;;;;;;;5.61;100.00;96634.44;4986342;28;20060;-66
2021/01/12 05:53:08;;;;;;;96.50;44.70;;;;;;;5.66;100.00;96647.91;4986755;28;20045;-66
2021/01/12 05:55:37;;;;;;;41.80;21.05;;;;;;;4.94;100.00;96582.19;5003983;28;20030;-66
2021/01/12 05:58:19;;;;;;;26.38;14.45;;;;;;;5.14;100.00;96601.25;5006143;28;20065;-66
2021/01/12 06:00:47;;;;;;;54.40;25.52;;;;;;;5.59;100.00;96694.41;5019289;28;20056;-71
2021/01/12 06:03:16;;;;;;;78.50;37.30;;;;;;;4.80;100.00;96585.31;5018526;28;20513;-65
2021/01/12 06:05:48;;;;;;;81.25;40.13;;;;;;;5.69;100.00;96705.72;5023502;28;20033;-67
2021/01/12 06:08:14;;;;;;;87.22;40.20;;;;;;;5.46;100.00;96670.84;5023577;28;20026;-64
2021/01/12 06:10:45;;;;;;;45.80;25.40;;;;;;;5.75;100.00;96709.03;5023311;28;20038;-72
2021/01/12 06:13:16;;;;;;;90.38;46.63;;;;;;;5.73;100.00;96703.88;5024387;28;20030;-69
2021/01/12 06:15:43;;;;;;;59.55;31.30;;;;;;;5.64;100.00;96694.19;5023735;28;20040;-75
2021/01/12 06:18:16;;;;;;;30.33;18.38;;;;;;;3.97;100.00;96445.16;5023459;28;20119;-76
2021/01/12 06:20:45;;;;;;;;;;;;;;;5.60;100.00;96693.25;5023989;28;20060;-71
2021/01/12 06:23:21;;;;;;;24.58;13.93;;;;;;;5.51;100.00;96685.16;5023705;28;20003;-71
2021/01/12 06:25:48;;;;;;;27.13;15.18;;;;;;;5.47;100.00;96686.22;5023638;28;20099;-71
2021/01/12 06:28:14;;;;;;;19.52;10.70;;;;;;;5.50;100.00;96688.25;5008271;28;20120;-65
2021/01/12 06:30:41;;;;;;;20.95;10.93;;;;;;;3.37;100.00;96379.41;5027476;28;20037;-72
2021/01/12 06:33:09;;;;;;;10.55;6.05;;;;;;;4.81;100.00;96627.22;5027996;28;20037;-72
2021/01/12 06:35:40;;;;;;;11.13;5.65;;;;;;;5.23;100.00;96683.50;5027414;28;20049;-64
2021/01/12 06:38:07;;;;;;;23.98;17.98;;;;;;;4.44;100.00;96577.09;5027377;28;20033;-64
2021/01/12 06:40:35;;;;;;;16.35;8.55;;;;;;;5.07;100.00;96690.81;5026485;28;20408;-69
2021/01/12 06:43:01;;;;;;;22.25;10.55;;;;;;;4.73;100.00;96652.88;5005025;28;20045;-62
2021/01/12 06:45:27;;;;;;;22.23;11.05;;;;;;;4.87;100.00;96680.75;5018946;28;20030;-68
2021/01/12 06:47:54;;;;;;;19.65;9.90;;;;;;;4.84;100.00;96678.69;5027584;28;20048;-66
2021/01/12 06:50:23;;;;;;;23.83;12.20;;;;;;;4.48;100.00;96630.09;5027195;28;20136;-74
2021/01/12 06:52:50;;;;;;;21.90;11.32;;;;;;;4.66;100.00;96665.19;5027108;28;20117;-70
2021/01/12 06:55:18;;;;;;;26.65;12.95;;;;;;;4.54;100.00;96667.91;5027005;28;20038;-63
2021/01/12 06:57:45;;;;;;;25.35;13.75;;;;;;;4.10;100.00;96600.22;5027005;28;20057;-65
2021/01/12 07:00:11;;;;;;;24.60;13.27;;;;;;;4.28;100.00;96609.81;5026628;28;20425;-64
2021/01/12 07:02:36;;;;;;;27.27;15.57;;;;;;;4.12;100.00;96587.00;5026289;28;20047;-69
2021/01/12 07:05:05;;;;;;;40.88;21.40;;;;;;;4.49;100.00;96631.69;5008401;28;20584;-67
2021/01/12 07:07:32;;;;;;;49.42;26.58;;;;;;;4.63;100.00;96627.47;5026522;28;20034;-66
2021/01/12 07:09:59;;;;;;;60.70;31.65;;;;;;;4.76;100.00;96606.31;5026802;28;20029;-65
2021/01/12 07:12:28;;;;;;;65.07;34.40;;;;;;;4.63;100.00;96552.63;5025999;28;20084;-63
2021/01/12 07:14:56;;;;;;;34.08;17.80;;;;;;;4.82;100.00;96593.19;5007185;28;20026;-66
2021/01/12 07:17:24;;;;;;;62.15;29.75;;;;;;;4.74;100.00;96605.06;5008045;28;20045;-66
2021/01/12 07:20:00;;;;;;;56.15;32.67;;;;;;;4.68;100.00;96598.22;5026290;28;20112;-69
2021/01/12 07:22:31;;;;;;;38.92;22.73;;;;;;;4.68;100.00;96591.59;5026614;28;20091;-66
2021/01/12 07:24:57;;;;;;;42.90;24.33;;;;;;;4.45;100.00;96571.25;5027140;28;20038;-67
2021/01/12 07:27:23;;;;;;;56.28;31.70;;;;;;;4.44;100.00;96585.31;5024474;28;20045;-67
2021/01/12 07:29:51;;;;;;;71.72;41.00;;;;;;;3.98;100.00;96548.13;5025991;28;20151;-67
2021/01/12 07:32:30;;;;;;;48.17;27.42;;;;;;;4.43;100.00;96611.91;5025444;28;20504;-67
2021/01/12 07:34:59;;;;;;;38.55;20.98;;;;;;;3.71;100.00;96561.66;5008573;28;20038;-68
2021/01/12 07:37:33;;;;;;;20.55;12.48;;;;;;;3.87;100.00;96562.63;5025526;28;20562;-64
2021/01/12 07:39:59;;;;;;;25.20;13.25;;;;;;;3.58;100.00;96514.28;5025852;28;20431;-63
2021/01/12 07:42:24;;;;;;;21.95;12.45;;;;;;;3.54;100.00;96516.06;5025678;28;20507;-65
2021/01/12 07:44:50;;;;;;;28.50;15.68;;;;;;;3.86;100.00;96586.47;5026303;28;20037;-64
2021/01/12 07:47:17;;;;;;;28.17;14.90;;;;;;;4.10;100.00;96618.59;5004263;28;20034;-63
2021/01/12 07:49:44;;;;;;;24.02;13.35;;;;;;;3.58;100.00;96574.50;5005290;28;20026;-63
2021/01/12 07:52:09;;;;;;;16.38;8.85;;;;;;;3.54;100.00;96539.94;5025906;28;20029;-64
2021/01/12 07:54:35;;;;;;;16.35;9.73;;;;;;;4.11;100.00;96610.03;5025883;28;20029;-64
2021/01/12 07:57:01;;;;;;;20.70;12.38;;;;;;;3.88;100.00;96578.72;5007413;28;20071;-64
2021/01/12 07:59:27;;;;;;;33.85;16.42;;;;;;;4.13;100.00;96629.69;5025994;28;20459;-64
2021/01/12 08:01:54;;;;;;;55.28;31.77;;;;;;;4.26;100.00;96623.09;5006869;28;20041;-64
2021/01/12 08:04:20;;;;;;;46.53;26.75;;;;;;;3.76;100.00;96602.53;5006831;28;20029;-65
2021/01/12 08:06:48;;;;;;;32.05;19.38;;;;;;;4.30;100.00;96607.56;5025040;28;20124;-72
2021/01/12 08:09:21;;;;;;;19.40;12.68;;;;;;;3.91;100.00;96545.16;5007664;28;20101;-64
2021/01/12 08:11:50;;;;;;;21.52;12.27;;;;;;;3.96;100.00;96569.59;4987668;28;20057;-66
2021/01/12 08:14:24;;;;;;;21.35;12.80;;;;;;;3.63;100.00;96510.50;5003580;28;20037;-61
2021/01/12 08:16:51;;;;;;;25.50;13.50;;;;;;;4.27;100.00;96613.72;5024670;28;20037;-64
2021/01/12 08:19:25;;;;;;;55.72;28.02;;;;;;;3.93;100.00;96596.88;5025345;28;20112;-63
2021/01/12 08:21:53;;;;;;;;;;;;;;;4.29;100.00;96605.97;5025199;28;20048;-66
2021/01/12 08:24:20;;;;;;;91.80;40.30;;;;;;;4.26;100.00;96601.16;5025213;28;19970;-66
2021/01/12 08:26:46;;;;;;;61.22;29.45;;;;;;;3.77;100.00;96498.13;5025567;28;20083;-63
2021/01/12 08:29:12;;;;;;;46.72;25.52;;;;;;;4.33;100.00;96595.91;5025908;28;20713;-71
2021/01/12 08:31:47;;;;;;;59.95;34.58;;;;;;;4.43;100.00;96600.94;4992444;28;20045;-64
2021/01/12 08:34:16;;;;;;;33.75;21.00;;;;;;;4.50;100.00;96594.91;5010232;28;20060;-63
2021/01/12 08:36:43;;;;;;;47.22;29.00;;;;;;;2.54;100.00;96342.50;5024405;28;20038;-63
2021/01/12 08:39:09;;;;;;;47.28;26.35;;;;;;;4.45;100.00;96598.69;5025013;28;20037;-65
2021/01/12 08:41:39;;;;;;;40.35;23.92;;;;;;;3.12;100.00;96380.50;5025164;28;20141;-72
2021/01/12 08:44:05;;;;;;;33.33;18.05;;;;;;;3.18;100.00;96373.66;5024468;28;20068;-66
2021/01/12 08:46:30;;;;;;;15.20;8.85;;;;;;;4.55;100.00;96573.53;5024581;28;20084;-68
2021/01/12 08:48:55;;;;;;;20.17;10.52;;;;;;;3.65;100.00;96415.94;5005823;28;20029;-67
2021/01/12 08:51:23;;;;;;;21.17;11.18;;;;;;;4.59;100.00;96566.22;5024162;28;20033;-63
2021/01/12 08:53:55;;;;;;;26.20;13.60;;;;;;;4.00;100.00;96449.94;5025068;28;20029;-66
2021/01/12 08:56:22;;;;;;;52.70;27.35;;;;;;;4.86;100.00;96572.13;5023938;28;20516;-65
2021/01/12 08:58:47;;;;;;;46.92;27.67;;;;;;;4.97;100.00;96563.09;5003220;28;20046;-64
2021/01/12 09:01:16;;;;;;;40.97;23.42;;;;;;;4.79;100.00;96528.03;5004409;28;20057;-68
2021/01/12 09:03:42;;;;;;;36.90;22.27;;;;;;;4.65;100.00;96520.97;5004414;28;20030;-67
2021/01/12 09:06:22;;;;;;;51.60;28.58;;;;;;;4.90;100.00;96548.38;5002264;28;20511;-68
2021/01/12 09:08:48;;;;;;;54.05;28.63;;;;;;;4.60;100.00;96504.75;4999294;28;20042;-66
2021/01/12 09:11:14;;;;;;;52.08;35.60;;;;;;;4.81;100.00;96533.94;4984844;28;20064;-64
2021/01/12 09:13:40;;;;;;;29.52;17.52;;;;;;;4.78;100.00;96518.19;4993769;28;20408;-66
2021/01/12 09:16:06;;;;;;;35.38;20.95;;;;;;;4.68;100.00;96531.25;5004828;28;20038;-71
2021/01/12 09:18:35;;;;;;;41.22;22.70;;;;;;;4.75;100.00;96502.41;5003328;28;20034;-63
2021/01/12 09:21:08;;;;;;;42.95;26.52;;;;;;;4.66;100.00;96497.09;5004234;28;20038;-65
2021/01/12 09:23:36;;;;;;;22.85;12.15;;;;;;;4.25;100.00;96435.09;5003177;28;20033;-63
2021/01/12 09:26:03;;;;;;;15.45;10.48;;;;;;;4.27;100.00;96408.13;4998489;28;20453;-64
2021/01/12 09:28:35;;;;;;;15.30;9.45;;;;;;;4.58;100.00;96432.97;5003406;28;20041;-68
2021/01/12 09:31:08;;;;;;;21.73;8.43;;;;;;;4.64;100.00;96442.56;5004297;28;20034;-73
2021/01/12 09:33:35;;;;;;;10.93;6.22;;;;;;;4.48;100.00;96395.09;5004465;28;20072;-70
2021/01/12 09:36:21;;;;;;;32.83;14.80;;;;;;;4.88;100.00;96451.88;5002403;28;20041;-63
2021/01/12 09:38:47;;;;;;;42.60;20.77;;;;;;;4.95;100.00;96441.09;4999371;28;20053;-64
2021/01/12 09:41:14;;;;;;;40.58;21.63;;;;;;;4.28;100.00;96354.91;4999528;28;20038;-68
2021/01/12 09:43:41;;;;;;;28.63;18.98;;;;;;;5.20;100.00;96431.63;5004775;28;20054;-65
2021/01/12 09:46:08;;;;;;;23.67;13.30;;;;;;;4.41;100.00;96306.34;5004012;28;20034;-68
2021/01/12 09:48:34;;;;;;;21.88;12.63;;;;;;;5.35;100.00;96400.63;5001622;28;20087;-65
2021/01/12 09:51:00;;;;;;;45.70;19.95;;;;;;;5.03;100.00;96347.63;5004485;28;20038;-66
2021/01/12 09:53:26;;;;;;;21.48;12.80;;;;;;;5.58;100.00;96421.66;5004210;28;20049;-66
2021/01/12 09:55:51;;;;;;;21.63;12.38;;;;;;;5.46;100.00;96390.72;5004163;28;20473;-73
2021/01/12 09:58:16;;;;;;;18.50;12.30;;;;;;;5.76;100.00;96427.59;5018518;28;20046;-70
2021/01/12 10:00:42;;;;;;;18.13;12.75;;;;;;;5.82;100.00;96409.72;5027176;28;20025;-64
2021/01/12 10:03:07;;;;;;;20.35;14.60;;;;;;;5.83;100.00;96412.13;5010504;28;20824;-66
2021/01/12 10:05:37;;;;;;;25.95;16.05;;;;;;;5.83;100.00;96408.59;5014437;28;20030;-63
2021/01/12 10:08:03;;;;;;;31.15;17.02;;;;;;;5.66;100.00;96362.19;5017608;28;20076;-66
2021/01/12 10:10:28;;;;;;;26.50;15.38;;;;;;;5.91;100.00;96462.59;5027333;28;20041;-65
2021/01/12 10:12:54;;;;;;;21.65;12.63;;;;;;;5.90;100.00;96406.00;5028197;28;20575;-64
2021/01/12 10:15:19;;;;;;;31.67;14.98;;;;;;;5.59;100.00;96326.31;5006146;28;20473;-65
2021/01/12 10:17:45;;;;;;;27.83;14.98;;;;;;;6.03;100.00;96378.06;5008329;28;20038;-63
2021/01/12 10:20:10;;;;;;;25.98;13.73;;;;;;;6.02;100.00;96367.44;5025186;28;20029;-63
2021/01/12 10:22:36;;;;;;;19.90;11.77;;;;;;;5.15;100.00;96291.88;5027447;28;20139;-70
2021/01/12 10:25:03;;;;;;;13.98;9.07;;;;;;;5.92;100.00;96365.22;5027782;28;20111;-63
2021/01/12 10:27:37;;;;;;;16.05;8.55;;;;;;;5.54;100.00;96337.56;5009725;28;20698;-64
2021/01/12 10:30:05;;;;;;;11.30;7.10;;;;;;;5.27;100.00;96379.63;5009574;28;20144;-62
2021/01/12 10:32:31;;;;;;;10.35;6.32;;;;;;;5.06;100.00;96340.66;5007314;28;20042;-68
2021/01/12 10:34:57;;;;;;;11.90;6.25;;;;;;;5.26;100.00;96331.38;5027707;28;20087;-63
2021/01/12 10:37:22;;;;;;;5.75;2.92;;;;;;;5.40;100.00;96315.25;5026864;28;20040;-66
2021/01/12 10:39:48;;;;;;;6.40;2.70;;;;;;;5.48;100.00;96311.53;5027870;28;20037;-68
2021/01/12 10:42:13;;;;;;;4.60;2.20;;;;;;;5.67;100.00;96319.84;5026515;28;20052;-65
2021/01/12 10:44:39;;;;;;;7.95;3.80;;;;;;;5.51;100.00;96277.88;5027175;28;20040;-65
2021/01/12 10:47:04;;;;;;;18.38;10.35;;;;;;;5.76;100.00;96317.69;5025641;28;20348;-64
2021/01/12 10:49:30;;;;;;;56.20;35.08;;;;;;;5.71;100.00;96299.53;5025813;28;20041;-66
2021/01/12 10:52:00;;;;;;;18.75;10.50;;;;;;;5.73;100.00;96285.44;5027256;28;20061;-65
2021/01/12 10:54:26;;;;;;;11.88;7.25;;;;;;;5.47;100.00;96235.81;5009564;28;20040;-66
2021/01/12 10:56:52;;;;;;;17.65;8.65;;;;;;;4.83;100.00;96131.13;5008680;28;20045;-66
2021/01/12 10:59:17;;;;;;;34.95;17.35;;;;;;;5.67;100.00;96216.25;5009185;28;20041;-64
2021/01/12 11:01:43;;;;;;;113.40;55.45;;;;;;;5.15;100.00;96110.72;5006870;28;20049;-67
2021/01/12 11:04:08;;;;;;;98.15;48.00;;;;;;;5.43;100.00;96160.78;5006128;28;20040;-65
2021/01/12 11:06:36;;;;;;;147.50;53.85;;;;;;;5.05;100.00;96100.28;5005992;28;20034;-64
2021/01/12 11:09:03;;;;;;;37.88;22.23;;;;;;;5.54;100.00;96187.31;5000742;28;20488;-66
2021/01/12 11:11:34;;;;;;;71.57;37.15;;;;;;;4.29;100.00;95997.47;5025508;28;20051;-72
2021/01/12 11:14:05;;;;;;;109.88;60.88;;;;;;;5.88;100.00;96210.47;5026844;28;20033;-67
2021/01/12 11:16:39;;;;;;;52.03;31.40;;;;;;;5.52;100.00;96142.13;5026283;28;20450;-65
2021/01/12 11:19:07;;;;;;;28.73;16.85;;;;;;;5.80;100.00;96156.47;5008927;28;20040;-67
2021/01/12 11:21:40;;;;;;;42.05;21.35;;;;;;;5.47;100.00;96184.41;5025444;28;20038;-68
2021/01/12 11:24:06;;;;;;;18.38;10.13;;;;;;;5.00;100.00;96095.06;5025776;28;20033;-65